createdAt,value
2022-10-01T00:04:28.152Z,3.76
2022-10-01T00:09:29.706Z,3.65
2022-10-01T00:14:34.206Z,3.64
2022-10-01T00:19:35.809Z,3.69
2022-10-01T00:24:37.741Z,3.70
2022-10-01T00:29:40.655Z,3.59
2022-10-01T00:34:42.196Z,3.57
2022-10-01T00:39:44.450Z,3.61
2022-10-01T00:44:46.316Z,3.56
2022-10-01T00:49:50.015Z,3.51
2022-10-01T00:54:59.507Z,3.40
2022-10-01T01:00:05.900Z,3.37
2022-10-01T01:05:09.061Z,3.43
2022-10-01T01:10:13.285Z,3.35
2022-10-01T01:15:34.289Z,3.41
2022-10-01T01:20:50.144Z,3.33
2022-10-01T01:25:51.695Z,3.19
2022-10-01T01:30:58.287Z,3.18
2022-10-01T01:36:09.250Z,3.09
2022-10-01T01:41:12.659Z,3.07
2022-10-01T01:46:17.682Z,3.03
2022-10-01T01:51:43.617Z,2.95
2022-10-01T01:56:46.443Z,2.92
2022-10-01T02:01:49.496Z,2.91
2022-10-01T02:06:58.163Z,2.97
2022-10-01T02:12:08.787Z,2.96
2022-10-01T02:17:29.409Z,2.94
2022-10-01T02:22:52.823Z,2.86
2022-10-01T02:28:01.543Z,2.84
2022-10-01T02:33:05.946Z,2.80
2022-10-01T02:38:08.829Z,2.75
2022-10-01T02:43:19.963Z,2.75
2022-10-01T02:48:21.671Z,2.69
2022-10-01T02:53:35.164Z,2.67
2022-10-01T02:58:36.860Z,2.63
2022-10-01T03:03:43.006Z,2.67
2022-10-01T03:08:45.685Z,2.73
2022-10-01T03:13:47.208Z,2.69
2022-10-01T03:18:48.761Z,2.72
2022-10-01T03:23:50.281Z,2.73
2022-10-01T03:28:51.799Z,2.72
2022-10-01T03:33:53.341Z,2.78
2022-10-01T03:38:55.859Z,2.84
2022-10-01T03:44:00.614Z,2.87
2022-10-01T03:49:02.985Z,2.95
2022-10-01T03:54:06.875Z,2.99
2022-10-01T03:59:12.100Z,2.98
2022-10-01T04:04:13.808Z,3.07
2022-10-01T04:09:15.336Z,3.16
2022-10-01T04:14:16.969Z,3.21
2022-10-01T04:19:19.834Z,3.29
2022-10-01T04:24:21.377Z,3.37
2022-10-01T04:29:22.900Z,3.42
2022-10-01T04:34:44.393Z,3.40
2022-10-01T04:39:46.017Z,3.43
2022-10-01T04:44:47.835Z,3.50
2022-10-01T04:49:49.581Z,3.58
2022-10-01T04:54:52.328Z,3.56
2022-10-01T04:59:53.909Z,3.55
2022-10-01T05:04:56.117Z,3.59
2022-10-01T05:09:58.373Z,3.62
2022-10-01T05:14:59.940Z,3.63
2022-10-01T05:20:04.908Z,3.72
2022-10-01T05:25:07.069Z,3.93
2022-10-01T05:30:10.898Z,4.01
2022-10-01T05:35:12.435Z,4.05
2022-10-01T05:40:14.069Z,4.19
2022-10-01T05:45:15.774Z,4.35
2022-10-01T05:50:17.345Z,4.46
2022-10-01T05:55:19.891Z,4.55
2022-10-01T06:00:22.843Z,4.83
2022-10-01T06:05:25.198Z,5.04
2022-10-01T06:10:29.418Z,5.21
2022-10-01T06:15:34.473Z,5.34
2022-10-01T06:20:36.332Z,5.65
2022-10-01T06:25:39.722Z,6.01
2022-10-01T06:30:42.503Z,6.28
2022-10-01T06:35:49.416Z,6.58
2022-10-01T06:41:09.791Z,7.05
2022-10-01T06:46:11.506Z,7.47
2022-10-01T06:51:13.084Z,7.69
2022-10-01T06:56:14.685Z,7.96
2022-10-01T07:01:19.721Z,8.37
2022-10-01T07:06:21.332Z,9.06
2022-10-01T07:11:22.873Z,9.76
2022-10-01T07:16:24.549Z,10.17
2022-10-01T07:21:26.325Z,10.32
2022-10-01T07:26:27.846Z,10.41
2022-10-01T07:31:29.466Z,10.60
2022-10-01T07:36:31.060Z,10.68
2022-10-01T07:41:33.049Z,10.62
2022-10-01T07:46:34.955Z,10.70
2022-10-01T07:51:36.814Z,10.68
2022-10-01T07:56:41.671Z,10.84
2022-10-01T08:01:43.251Z,10.90
2022-10-01T08:06:47.323Z,10.94
2022-10-01T08:11:48.942Z,10.89
2022-10-01T08:16:50.571Z,10.92
2022-10-01T08:21:52.818Z,11.12
2022-10-01T08:26:57.905Z,11.12
2022-10-01T08:31:59.498Z,11.19
2022-10-01T08:37:01.047Z,11.30
2022-10-01T08:42:15.374Z,11.37
2022-10-01T08:47:21.328Z,11.29
2022-10-01T08:52:22.819Z,11.28
2022-10-01T08:57:32.366Z,11.25
2022-10-01T09:02:38.222Z,11.33
2022-10-01T09:07:49.440Z,11.54
2022-10-01T09:13:06.961Z,11.70
2022-10-01T09:18:37.456Z,11.49
2022-10-01T09:23:51.242Z,11.46
2022-10-01T09:28:55.915Z,11.54
2022-10-01T09:34:12.476Z,11.43
2022-10-01T09:39:32.664Z,11.16
2022-10-01T09:44:35.001Z,10.85
2022-10-01T09:49:44.613Z,10.88
2022-10-01T09:55:06.430Z,10.55
2022-10-01T10:00:18.234Z,10.21
2022-10-01T10:05:22.870Z,9.91
2022-10-01T10:10:27.249Z,9.70
2022-10-01T10:15:32.552Z,9.51
2022-10-01T10:20:40.417Z,9.38
2022-10-01T10:25:42.620Z,9.35
2022-10-01T10:30:44.226Z,9.33
2022-10-01T10:35:45.814Z,9.31
2022-10-01T10:40:48.885Z,9.26
2022-10-01T10:45:56.401Z,9.26
2022-10-01T10:51:00.866Z,9.29
2022-10-01T10:56:05.250Z,9.24
2022-10-01T11:01:12.087Z,9.24
2022-10-01T11:06:17.021Z,9.29
2022-10-01T11:11:45.626Z,9.34
2022-10-01T11:17:20.151Z,9.40
2022-10-01T11:22:24.554Z,9.48
2022-10-01T11:27:36.793Z,9.50
2022-10-01T11:32:46.104Z,9.44
2022-10-01T11:38:13.824Z,9.45
2022-10-01T11:43:26.619Z,9.43
2022-10-01T11:48:38.343Z,9.47
2022-10-01T11:53:46.955Z,9.45
2022-10-01T11:59:13.741Z,9.45
2022-10-01T12:04:22.042Z,9.38
2022-10-01T12:09:45.311Z,9.27
2022-10-01T12:15:05.725Z,9.24
2022-10-01T12:20:34.117Z,9.21
2022-10-01T12:25:44.617Z,9.17
2022-10-01T12:30:57.309Z,9.17
2022-10-01T12:36:41.483Z,9.21
2022-10-01T12:41:57.189Z,9.27
2022-10-01T12:47:05.735Z,9.23
2022-10-01T12:52:13.610Z,9.27
2022-10-01T12:57:39.926Z,9.33
2022-10-01T13:03:02.592Z,9.40
2022-10-01T13:08:16.516Z,9.62
2022-10-01T13:13:23.500Z,9.90
2022-10-01T13:18:36.068Z,10.17
2022-10-01T13:23:43.926Z,10.45
2022-10-01T13:29:07.859Z,10.59
2022-10-01T13:34:34.684Z,10.78
2022-10-01T13:39:39.511Z,11.13
2022-10-01T13:44:41.341Z,11.32
2022-10-01T13:49:42.997Z,11.09
2022-10-01T13:54:51.231Z,11.11
2022-10-01T14:00:01.895Z,11.78
2022-10-01T14:05:39.617Z,11.47
2022-10-01T14:11:10.133Z,11.48
2022-10-01T14:16:13.593Z,11.41
2022-10-01T14:21:43.260Z,11.10
2022-10-01T14:26:57.891Z,11.09
2022-10-01T14:32:25.652Z,10.90
2022-10-01T14:37:28.927Z,10.83
2022-10-01T14:42:30.530Z,10.80
2022-10-01T14:47:35.631Z,10.92
2022-10-01T14:52:44.341Z,10.89
2022-10-01T14:57:50.149Z,10.81
2022-10-01T15:03:13.589Z,10.77
2022-10-01T15:08:35.582Z,10.73
2022-10-01T15:13:40.711Z,10.72
2022-10-01T15:18:46.973Z,10.73
2022-10-01T15:23:49.134Z,10.74
2022-10-01T15:29:04.883Z,10.76
2022-10-01T15:34:11.000Z,10.84
2022-10-01T15:39:29.986Z,10.85
2022-10-01T15:44:49.213Z,10.84
2022-10-01T15:50:10.982Z,10.85
2022-10-01T15:55:17.659Z,10.80
2022-10-01T16:00:28.795Z,10.77
2022-10-01T16:05:47.230Z,10.80
2022-10-01T16:11:09.363Z,10.83
2022-10-01T16:16:10.936Z,10.94
2022-10-01T16:21:12.561Z,11.01
2022-10-01T16:26:32.630Z,10.96
2022-10-01T16:31:36.381Z,10.86
2022-10-01T16:36:38.963Z,10.82
2022-10-01T16:41:45.322Z,10.72
2022-10-01T16:46:46.978Z,10.69
2022-10-01T16:51:52.867Z,10.67
2022-10-01T16:56:55.436Z,10.70
2022-10-01T17:01:57.481Z,10.78
2022-10-01T17:06:59.411Z,10.71
2022-10-01T17:12:01.886Z,10.65
2022-10-01T17:17:03.447Z,10.61
2022-10-01T17:22:04.970Z,10.62
2022-10-01T17:27:06.545Z,10.71
2022-10-01T17:32:08.319Z,10.81
2022-10-01T17:37:09.881Z,10.86
2022-10-01T17:42:11.513Z,10.92
2022-10-01T17:47:13.089Z,10.91
2022-10-01T17:52:15.166Z,10.93
2022-10-01T17:57:17.271Z,10.93
2022-10-01T18:02:40.460Z,10.64
2022-10-01T18:07:41.575Z,10.35
2022-10-01T18:12:43.241Z,10.28
2022-10-01T18:17:51.377Z,10.24
2022-10-01T18:22:53.313Z,10.26
2022-10-01T18:27:54.905Z,10.26
2022-10-01T18:32:57.169Z,10.23
2022-10-01T18:38:06.843Z,10.20
2022-10-01T18:43:17.807Z,10.12
2022-10-01T18:48:34.488Z,10.00
2022-10-01T18:53:54.592Z,9.99
2022-10-01T18:59:12.413Z,9.83
2022-10-01T19:04:33.600Z,9.84
2022-10-01T19:09:52.034Z,9.93
2022-10-01T19:15:16.736Z,10.11
2022-10-01T19:20:43.830Z,10.22
2022-10-01T19:26:01.765Z,10.28
2022-10-01T19:31:12.702Z,10.29
2022-10-01T19:36:37.339Z,10.34
2022-10-01T19:42:01.305Z,10.34
2022-10-01T19:47:15.713Z,10.30
2022-10-01T19:52:19.137Z,10.42
2022-10-01T19:57:23.893Z,10.41
2022-10-01T20:02:41.063Z,10.40
2022-10-01T20:07:59.393Z,10.32
2022-10-01T20:13:31.548Z,10.29
2022-10-01T20:18:57.785Z,10.35
2022-10-01T20:24:29.756Z,10.36
2022-10-01T20:29:50.809Z,10.35
2022-10-01T20:35:09.704Z,10.24
2022-10-01T20:40:18.696Z,10.27
2022-10-01T20:45:33.975Z,10.12
2022-10-01T20:50:43.865Z,10.02
2022-10-01T20:56:16.237Z,9.99
2022-10-01T21:01:21.064Z,9.99
2022-10-01T21:06:26.550Z,10.08
2022-10-01T21:11:36.623Z,10.14
2022-10-01T21:17:03.364Z,10.17
2022-10-01T21:22:19.813Z,10.15
2022-10-01T21:27:42.934Z,10.16
2022-10-01T21:33:14.781Z,10.15
2022-10-01T21:38:45.491Z,10.15
2022-10-01T21:44:10.090Z,10.14
2022-10-01T21:49:25.852Z,10.14
2022-10-01T21:54:55.624Z,10.13
2022-10-01T22:00:16.512Z,10.14
2022-10-01T22:05:37.398Z,10.16
2022-10-01T22:10:50.149Z,10.19
2022-10-01T22:15:55.914Z,10.11
2022-10-01T22:21:00.894Z,10.09
2022-10-01T22:26:10.933Z,9.98
2022-10-01T22:31:20.249Z,9.85
2022-10-01T22:36:33.694Z,9.77
2022-10-01T22:41:44.765Z,9.75
2022-10-01T22:47:28.288Z,9.73
2022-10-01T22:52:40.910Z,9.65
2022-10-01T22:57:56.182Z,9.58
2022-10-01T23:03:04.002Z,9.51
2022-10-01T23:08:14.731Z,9.50
2022-10-01T23:13:37.372Z,9.61
2022-10-01T23:19:11.280Z,9.78
2022-10-01T23:24:26.812Z,9.92
2022-10-01T23:29:50.399Z,9.92
2022-10-01T23:35:34.858Z,10.01
2022-10-01T23:40:45.316Z,10.04
2022-10-01T23:45:54.634Z,9.97
2022-10-01T23:51:19.130Z,9.97
2022-10-01T23:56:48.469Z,9.91
